createdAt,value
2023-05-01T00:00:52.531Z,1023.00
2023-05-01T00:01:56.586Z,1022.97
2023-05-01T00:03:01.064Z,1022.91
2023-05-01T00:04:05.504Z,1022.91
2023-05-01T00:05:09.925Z,1022.95
2023-05-01T00:06:14.212Z,1022.95
2023-05-01T00:07:18.234Z,1022.96
2023-05-01T00:08:22.812Z,1022.99
2023-05-01T00:09:27.163Z,1022.90
2023-05-01T00:10:31.235Z,1022.95
2023-05-01T00:11:35.580Z,1023.06
2023-05-01T00:12:40.149Z,1023.03
2023-05-01T00:13:45.755Z,1022.97
2023-05-01T00:14:57.820Z,1022.89
2023-05-01T00:15:54.221Z,1022.88
2023-05-01T00:16:58.671Z,1022.91
2023-05-01T00:18:02.640Z,1022.90
2023-05-01T00:19:07.162Z,1022.88
2023-05-01T00:20:11.501Z,1022.83
2023-05-01T00:21:15.579Z,1022.84
2023-05-01T00:22:20.177Z,1022.84
2023-05-01T00:23:24.786Z,1022.80
2023-05-01T00:24:28.863Z,1022.74
2023-05-01T00:25:32.932Z,1022.76
2023-05-01T00:26:37.274Z,1022.73
2023-05-01T00:27:41.613Z,1022.79
2023-05-01T00:28:46.208Z,1022.75
2023-05-01T00:29:50.527Z,1022.72
2023-05-01T00:30:54.876Z,1022.72
2023-05-01T00:31:58.977Z,1022.70
2023-05-01T00:33:04.617Z,1022.76
2023-05-01T00:34:03.473Z,1022.71
2023-05-01T00:35:08.062Z,1022.66
2023-05-01T00:36:12.404Z,1022.68
2023-05-01T00:37:16.467Z,1022.69
2023-05-01T00:38:20.788Z,1022.70
2023-05-01T00:39:25.114Z,1022.71
2023-05-01T00:40:29.714Z,1022.68
2023-05-01T00:41:34.046Z,1022.66
2023-05-01T00:42:38.131Z,1022.70
2023-05-01T00:43:42.635Z,1022.67
2023-05-01T00:44:42.838Z,1022.66
2023-05-01T00:45:47.225Z,1022.63
2023-05-01T00:46:51.755Z,1022.63
2023-05-01T00:47:55.896Z,1022.59
2023-05-01T00:48:59.904Z,1022.60
2023-05-01T00:50:04.270Z,1022.57
2023-05-01T00:51:08.597Z,1022.55
2023-05-01T00:52:13.251Z,1022.53
2023-05-01T00:53:17.513Z,1022.54
2023-05-01T00:54:21.855Z,1022.55
2023-05-01T00:55:26.201Z,1022.50
2023-05-01T00:56:30.778Z,1022.55
2023-05-01T00:57:34.597Z,1022.47
2023-05-01T00:58:39.196Z,1022.49
2023-05-01T00:59:43.548Z,1022.51
2023-05-01T01:00:47.891Z,1022.53
2023-05-01T01:01:53.265Z,1022.47
2023-05-01T01:02:56.588Z,1022.45
2023-05-01T01:04:01.200Z,1022.47
2023-05-01T01:05:05.447Z,1022.42
2023-05-01T01:06:09.346Z,1022.41
2023-05-01T01:07:13.863Z,1022.39
2023-05-01T01:08:17.969Z,1022.36
2023-05-01T01:09:22.545Z,1022.35
2023-05-01T01:10:26.599Z,1022.35
2023-05-01T01:11:30.932Z,1022.37
2023-05-01T01:12:35.527Z,1022.34
2023-05-01T01:13:40.093Z,1022.32
2023-05-01T01:14:39.970Z,1022.31
2023-05-01T01:15:44.291Z,1022.30
2023-05-01T01:16:48.650Z,1022.27
2023-05-01T01:17:52.819Z,1022.23
2023-05-01T01:18:57.303Z,1022.25
2023-05-01T01:20:01.640Z,1022.24
2023-05-01T01:21:05.701Z,1022.18
2023-05-01T01:22:10.291Z,1022.22
2023-05-01T01:23:17.187Z,1022.19
2023-05-01T01:24:16.192Z,1022.09
2023-05-01T01:25:20.681Z,1022.09
2023-05-01T01:26:24.998Z,1022.07
2023-05-01T01:27:29.602Z,1022.08
2023-05-01T01:28:33.393Z,1022.08
2023-05-01T01:29:37.729Z,1022.05
2023-05-01T01:30:42.382Z,1022.07
2023-05-01T01:31:46.642Z,1022.04
2023-05-01T01:32:51.045Z,1021.99
2023-05-01T01:33:55.071Z,1022.06
2023-05-01T01:34:59.650Z,1022.03
2023-05-01T01:36:04.258Z,1022.04
2023-05-01T01:37:08.574Z,1022.09
2023-05-01T01:38:12.671Z,1022.08
2023-05-01T01:40:07.630Z,1022.05
2023-05-01T01:41:12.198Z,1022.04
2023-05-01T01:42:16.550Z,1022.01
2023-05-01T01:43:20.865Z,1022.03
2023-05-01T01:44:24.575Z,1022.00
2023-05-01T01:45:26.716Z,1022.00
2023-05-01T01:46:31.115Z,1021.96
2023-05-01T01:47:35.110Z,1021.99
2023-05-01T01:48:39.702Z,1021.92
2023-05-01T01:49:44.036Z,1021.95
2023-05-01T01:50:48.097Z,1021.92
2023-05-01T01:51:51.651Z,1021.92
2023-05-01T01:52:57.035Z,1021.90
2023-05-01T01:54:01.616Z,1021.93
2023-05-01T01:55:05.708Z,1021.93
2023-05-01T01:56:10.056Z,1021.89
2023-05-01T01:57:14.126Z,1021.88
2023-05-01T01:58:18.436Z,1021.88
2023-05-01T01:59:22.776Z,1021.88
2023-05-01T02:00:27.365Z,1021.89
2023-05-01T02:01:31.751Z,1021.86
2023-05-01T02:02:36.086Z,1021.84
2023-05-01T02:03:40.480Z,1021.79
2023-05-01T02:04:44.436Z,1021.79
2023-05-01T02:05:48.777Z,1021.75
2023-05-01T02:06:53.375Z,1021.79
2023-05-01T02:07:57.451Z,1021.74
2023-05-01T02:09:01.805Z,1021.72
2023-05-01T02:10:02.192Z,1021.73
2023-05-01T02:11:12.737Z,1021.69
2023-05-01T02:12:10.858Z,1021.67
2023-05-01T02:13:15.219Z,1021.70
2023-05-01T02:14:19.271Z,1021.67
2023-05-01T02:15:23.848Z,1021.67
2023-05-01T02:16:28.541Z,1021.65
2023-05-01T02:17:32.519Z,1021.65
2023-05-01T02:18:36.811Z,1021.65
2023-05-01T02:19:41.386Z,1021.64
2023-05-01T02:20:45.469Z,1021.62
2023-05-01T02:21:50.051Z,1021.62
2023-05-01T02:22:54.648Z,1021.62
2023-05-01T02:23:58.996Z,1021.64
2023-05-01T02:25:02.804Z,1021.60
2023-05-01T02:26:07.429Z,1021.58
2023-05-01T02:27:11.476Z,1021.53
2023-05-01T02:28:15.824Z,1021.51
2023-05-01T02:29:20.137Z,1021.49
2023-05-01T02:30:24.735Z,1021.49
2023-05-01T02:31:29.152Z,1021.45
2023-05-01T02:32:33.662Z,1021.43
2023-05-01T02:33:37.755Z,1021.42
2023-05-01T02:34:41.808Z,1021.39
2023-05-01T02:35:46.388Z,1021.33
2023-05-01T02:36:50.470Z,1021.37
2023-05-01T02:37:54.809Z,1021.35
2023-05-01T02:38:59.154Z,1021.36
2023-05-01T02:39:59.625Z,1021.28
2023-05-01T02:41:03.612Z,1021.30
2023-05-01T02:42:08.195Z,1021.26
2023-05-01T02:43:12.538Z,1021.28
2023-05-01T02:44:17.136Z,1021.26
2023-05-01T02:45:21.216Z,1021.24
2023-05-01T02:46:25.642Z,1021.26
2023-05-01T02:47:29.645Z,1021.22
2023-05-01T02:48:34.225Z,1021.21
2023-05-01T02:49:38.597Z,1021.20
2023-05-01T02:50:50.866Z,1021.18
2023-05-01T02:51:47.211Z,1021.16
2023-05-01T02:52:51.813Z,1021.18
2023-05-01T02:53:55.888Z,1021.14
2023-05-01T02:54:59.963Z,1021.11
2023-05-01T02:58:46.799Z,1021.06
2023-05-01T02:59:51.470Z,1021.08
2023-05-01T03:00:55.783Z,1021.06
2023-05-01T03:02:00.073Z,1021.08
2023-05-01T03:03:04.703Z,1021.01
2023-05-01T03:04:09.796Z,1021.06
2023-05-01T03:05:09.186Z,1021.06
2023-05-01T03:06:13.260Z,1021.11
2023-05-01T03:07:17.570Z,1021.06
2023-05-01T03:08:21.630Z,1021.07
2023-05-01T03:09:26.220Z,1021.04
2023-05-01T03:10:30.537Z,1021.00
2023-05-01T03:11:34.624Z,1020.98
2023-05-01T03:12:39.207Z,1020.97
2023-05-01T03:13:43.556Z,1020.95
2023-05-01T03:14:48.154Z,1020.95
2023-05-01T03:15:52.299Z,1020.95
2023-05-01T03:16:56.625Z,1020.96
2023-05-01T03:18:00.709Z,1020.95
2023-05-01T03:19:05.213Z,1020.94
2023-05-01T03:20:09.590Z,1020.94
2023-05-01T03:21:13.880Z,1020.92
2023-05-01T03:22:18.268Z,1020.89
2023-05-01T03:23:22.615Z,1020.87
2023-05-01T03:24:26.626Z,1020.93
2023-05-01T03:25:31.226Z,1020.89
2023-05-01T03:26:35.548Z,1020.90
2023-05-01T03:27:39.888Z,1020.86
2023-05-01T03:28:39.733Z,1020.92
2023-05-01T03:29:44.315Z,1020.91
2023-05-01T03:30:48.652Z,1020.91
2023-05-01T03:31:53.098Z,1020.85
2023-05-01T03:32:57.085Z,1020.82
2023-05-01T03:34:01.891Z,1020.84
2023-05-01T03:35:06.033Z,1020.88
2023-05-01T03:36:10.054Z,1020.86
2023-05-01T03:37:14.381Z,1020.82
2023-05-01T03:38:18.712Z,1020.82
2023-05-01T03:39:23.051Z,1020.85
2023-05-01T03:40:27.390Z,1020.83
2023-05-01T03:41:31.745Z,1020.85
2023-05-01T03:42:36.319Z,1020.82
2023-05-01T03:43:40.665Z,1020.83
2023-05-01T03:44:44.990Z,1020.81
2023-05-01T03:45:49.170Z,1020.79
2023-05-01T03:46:53.654Z,1020.83
2023-05-01T03:47:58.085Z,1020.76
2023-05-01T03:49:02.067Z,1020.78
2023-05-01T03:50:06.393Z,1020.77
2023-05-01T03:51:11.016Z,1020.77
2023-05-01T03:52:15.568Z,1020.80
2023-05-01T03:53:19.900Z,1020.76
2023-05-01T03:54:23.737Z,1020.77
2023-05-01T03:55:28.679Z,1020.76
2023-05-01T03:56:32.787Z,1020.77
2023-05-01T03:57:37.134Z,1020.76
2023-05-01T03:58:36.966Z,1020.77
2023-05-01T03:59:41.569Z,1020.72
2023-05-01T04:00:45.754Z,1020.69
2023-05-01T04:01:50.343Z,1020.75
2023-05-01T04:02:54.814Z,1020.74
2023-05-01T04:03:59.273Z,1020.72
2023-05-01T04:05:03.486Z,1020.69
2023-05-01T04:06:07.360Z,1020.71
2023-05-01T04:07:11.654Z,1020.67
2023-05-01T04:08:16.242Z,1020.67
2023-05-01T04:09:20.312Z,1020.67
2023-05-01T04:10:24.920Z,1020.70
2023-05-01T04:11:30.036Z,1020.70
2023-05-01T04:12:29.773Z,1020.64
2023-05-01T04:13:33.599Z,1020.64
2023-05-01T04:14:38.181Z,1020.63
2023-05-01T04:15:42.774Z,1020.63
2023-05-01T04:16:46.850Z,1020.64
2023-05-01T04:17:50.956Z,1020.63
2023-05-01T04:18:55.279Z,1020.71
2023-05-01T04:22:47.527Z,1020.67
2023-05-01T04:23:51.843Z,1020.66
2023-05-01T04:24:56.167Z,1020.65
2023-05-01T04:26:00.750Z,1020.58
2023-05-01T04:27:04.828Z,1020.60
2023-05-01T04:28:09.410Z,1020.61
2023-05-01T04:29:16.691Z,1020.58
2023-05-01T04:30:16.350Z,1020.58
2023-05-01T04:31:20.442Z,1020.60
2023-05-01T04:32:24.527Z,1020.60
2023-05-01T04:33:28.838Z,1020.58
2023-05-01T04:34:33.171Z,1020.59
2023-05-01T04:35:37.767Z,1020.54
2023-05-01T04:36:42.090Z,1020.55
2023-05-01T04:37:46.185Z,1020.55
2023-05-01T04:38:50.789Z,1020.53
2023-05-01T04:39:55.721Z,1020.58
2023-05-01T04:40:59.432Z,1020.52
2023-05-01T04:42:03.509Z,1020.56
2023-05-01T04:43:07.847Z,1020.53
2023-05-01T04:44:12.174Z,1020.57
2023-05-01T04:45:16.778Z,1020.57
2023-05-01T04:46:21.160Z,1020.54
2023-05-01T04:47:25.174Z,1020.55
2023-05-01T04:48:30.114Z,1020.57
2023-05-01T04:49:32.884Z,1020.56
2023-05-01T04:50:38.222Z,1020.59
2023-05-01T04:51:42.317Z,1020.59
2023-05-01T04:52:42.689Z,1020.62
2023-05-01T04:53:47.290Z,1020.60
2023-05-01T04:54:51.662Z,1020.61
2023-05-01T04:55:55.692Z,1020.66
2023-05-01T04:57:00.274Z,1020.62
2023-05-01T04:58:04.655Z,1020.62
2023-05-01T04:59:09.230Z,1020.62
2023-05-01T05:00:13.540Z,1020.62
2023-05-01T05:01:17.759Z,1020.63
2023-05-01T05:02:22.066Z,1020.66
2023-05-01T05:03:26.153Z,1020.63
2023-05-01T05:04:30.378Z,1020.67
2023-05-01T05:05:34.713Z,1020.63
2023-05-01T05:06:39.358Z,1020.64
2023-05-01T05:07:43.643Z,1020.66
2023-05-01T05:08:47.726Z,1020.60
2023-05-01T05:09:52.308Z,1020.63
2023-05-01T05:10:56.688Z,1020.61
2023-05-01T05:12:00.978Z,1020.60
2023-05-01T05:13:05.059Z,1020.63
2023-05-01T05:14:09.649Z,1020.66
2023-05-01T05:15:13.974Z,1020.61
2023-05-01T05:16:18.102Z,1020.67
2023-05-01T05:17:22.890Z,1020.64
2023-05-01T05:18:26.988Z,1020.64
2023-05-01T05:19:31.078Z,1020.65
2023-05-01T05:20:35.658Z,1020.64
2023-05-01T05:21:48.395Z,1020.64
2023-05-01T05:22:39.864Z,1020.59
2023-05-01T05:23:47.233Z,1020.62
2023-05-01T05:24:46.631Z,1020.55
2023-05-01T05:25:50.965Z,1020.60
2023-05-01T05:27:01.582Z,1020.57
2023-05-01T05:27:59.612Z,1020.54
2023-05-01T05:29:03.954Z,1020.56
2023-05-01T05:30:08.553Z,1020.58
2023-05-01T05:31:12.634Z,1020.58
2023-05-01T05:32:16.781Z,1020.59
2023-05-01T05:33:21.326Z,1020.61
2023-05-01T05:34:25.447Z,1020.62
2023-05-01T05:35:29.747Z,1020.60
2023-05-01T05:36:34.332Z,1020.59
2023-05-01T05:37:38.413Z,1020.56
2023-05-01T05:38:43.003Z,1020.52
2023-05-01T05:39:47.321Z,1020.55
2023-05-01T05:40:51.441Z,1020.51
2023-05-01T05:41:55.994Z,1020.49
2023-05-01T05:43:00.120Z,1020.54
2023-05-01T05:44:04.399Z,1020.54
2023-05-01T05:45:08.730Z,1020.51
2023-05-01T05:46:13.406Z,1020.56
2023-05-01T05:47:17.650Z,1020.52
2023-05-01T05:48:22.338Z,1020.52
2023-05-01T05:49:26.569Z,1020.48
2023-05-01T05:50:30.671Z,1020.49
2023-05-01T05:51:35.000Z,1020.50
2023-05-01T05:52:35.113Z,1020.48
2023-05-01T05:53:39.436Z,1020.48
2023-05-01T05:54:43.547Z,1020.48
2023-05-01T05:55:47.961Z,1020.49
2023-05-01T05:56:52.283Z,1020.49
2023-05-01T05:57:56.613Z,1020.48
2023-05-01T05:59:01.250Z,1020.49
2023-05-01T06:00:05.866Z,1020.48
2023-05-01T06:01:09.866Z,1020.51
2023-05-01T06:02:14.301Z,1020.50
2023-05-01T06:03:18.598Z,1020.49
2023-05-01T06:04:22.605Z,1020.49
2023-05-01T06:05:35.003Z,1020.49
2023-05-01T06:06:31.613Z,1020.51
2023-05-01T06:07:35.884Z,1020.47
2023-05-01T06:08:40.201Z,1020.50
2023-05-01T06:09:44.786Z,1020.46
2023-05-01T06:10:51.707Z,1020.49
2023-05-01T06:11:53.620Z,1020.45
2023-05-01T06:12:58.129Z,1020.48
2023-05-01T06:13:57.355Z,1020.47
2023-05-01T06:15:01.531Z,1020.45
2023-05-01T06:16:05.761Z,1020.42
2023-05-01T06:17:10.350Z,1020.43
2023-05-01T06:18:14.455Z,1020.39
2023-05-01T06:19:25.521Z,1020.38
2023-05-01T06:20:23.123Z,1020.40
2023-05-01T06:21:27.984Z,1020.36
2023-05-01T06:22:27.879Z,1020.39
2023-05-01T06:23:35.162Z,1020.37
2023-05-01T06:24:34.839Z,1020.35
2023-05-01T06:25:38.924Z,1020.29
2023-05-01T06:26:43.036Z,1020.32
2023-05-01T06:27:47.384Z,1020.29
2023-05-01T06:28:51.737Z,1020.25
2023-05-01T06:29:56.651Z,1020.25
2023-05-01T06:31:00.812Z,1020.26
2023-05-01T06:32:05.010Z,1020.25
2023-05-01T06:33:09.607Z,1020.22
2023-05-01T06:34:13.939Z,1020.23
2023-05-01T06:35:17.746Z,1020.24
2023-05-01T06:36:21.333Z,1020.26
2023-05-01T06:37:26.465Z,1020.27
2023-05-01T06:38:31.055Z,1020.27
2023-05-01T06:39:35.143Z,1020.29
2023-05-01T06:40:39.768Z,1020.30
2023-05-01T06:41:44.095Z,1020.32
2023-05-01T06:42:48.699Z,1020.30
2023-05-01T06:43:52.815Z,1020.30
2023-05-01T06:44:56.885Z,1020.26
2023-05-01T06:46:01.249Z,1020.28
2023-05-01T06:47:05.879Z,1020.31
2023-05-01T06:48:10.240Z,1020.32
2023-05-01T06:49:14.522Z,1020.32
2023-05-01T06:50:18.849Z,1020.33
2023-05-01T06:51:23.189Z,1020.29
2023-05-01T06:52:23.122Z,1020.31
2023-05-01T06:53:30.454Z,1020.29
2023-05-01T06:57:19.176Z,1020.30
2023-05-01T06:59:22.785Z,1020.27
2023-05-01T07:00:27.437Z,1020.27
2023-05-01T07:01:34.728Z,1020.23
2023-05-01T07:02:36.131Z,1020.29
2023-05-01T07:03:40.525Z,1020.21
2023-05-01T07:04:44.709Z,1020.22
2023-05-01T07:05:49.104Z,1020.21
2023-05-01T07:06:53.522Z,1020.23
2023-05-01T07:08:01.088Z,1020.22
2023-05-01T07:09:01.854Z,1020.21
2023-05-01T07:10:06.225Z,1020.21
2023-05-01T07:11:10.828Z,1020.16
2023-05-01T07:12:14.873Z,1020.16
2023-05-01T07:13:19.220Z,1020.13
2023-05-01T07:14:24.061Z,1020.16
2023-05-01T07:15:28.381Z,1020.13
2023-05-01T07:16:40.846Z,1020.11
2023-05-01T07:17:34.969Z,1020.13
2023-05-01T07:18:39.063Z,1020.12
2023-05-01T07:19:43.646Z,1020.09
2023-05-01T07:20:47.992Z,1020.10
2023-05-01T07:21:55.056Z,1020.10
2023-05-01T07:22:54.468Z,1020.11
2023-05-01T07:24:05.517Z,1020.11
2023-05-01T07:25:06.087Z,1020.11
2023-05-01T07:26:05.199Z,1020.13
2023-05-01T07:27:05.331Z,1020.11
2023-05-01T07:28:09.652Z,1020.08
2023-05-01T07:29:13.990Z,1020.07
2023-05-01T07:30:18.375Z,1020.06
2023-05-01T07:31:22.456Z,1020.07
2023-05-01T07:32:26.809Z,1020.04
2023-05-01T07:33:31.113Z,1020.03
2023-05-01T07:34:35.699Z,1020.04
2023-05-01T07:35:40.029Z,1020.01
2023-05-01T07:36:44.106Z,1020.08
2023-05-01T07:37:48.705Z,1020.02
2023-05-01T07:38:53.292Z,1020.04
2023-05-01T07:39:57.581Z,1020.04
2023-05-01T07:41:01.716Z,1019.98
2023-05-01T07:42:06.033Z,1019.99
2023-05-01T07:43:10.109Z,1019.95
2023-05-01T07:44:14.737Z,1019.99
2023-05-01T07:45:21.537Z,1019.98
2023-05-01T07:46:20.924Z,1019.93
2023-05-01T07:47:25.267Z,1019.93
2023-05-01T07:48:29.598Z,1019.89
2023-05-01T07:49:34.200Z,1019.89
2023-05-01T07:50:38.019Z,1019.87
2023-05-01T07:51:42.328Z,1019.88
2023-05-01T07:52:46.988Z,1019.87
2023-05-01T07:53:51.061Z,1019.87
2023-05-01T07:54:55.345Z,1019.84
2023-05-01T07:55:59.682Z,1019.85
2023-05-01T07:56:59.852Z,1019.85
2023-05-01T07:58:06.876Z,1019.82
2023-05-01T07:59:06.016Z,1019.80
2023-05-01T08:00:10.357Z,1019.77
2023-05-01T08:01:14.697Z,1019.77
2023-05-01T08:02:19.649Z,1019.78
2023-05-01T08:03:23.552Z,1019.77
2023-05-01T08:04:27.761Z,1019.73
2023-05-01T08:05:32.300Z,1019.73
2023-05-01T08:06:36.677Z,1019.72
2023-05-01T08:07:40.951Z,1019.64
2023-05-01T08:08:45.049Z,1019.63
2023-05-01T08:09:49.394Z,1019.67
2023-05-01T08:10:54.008Z,1019.65
2023-05-01T08:11:58.362Z,1019.61
2023-05-01T08:13:02.478Z,1019.57
2023-05-01T08:14:06.784Z,1019.59
2023-05-01T08:15:11.129Z,1019.57
2023-05-01T08:16:15.830Z,1019.55
2023-05-01T08:17:20.105Z,1019.53
2023-05-01T08:18:24.376Z,1019.53
2023-05-01T08:19:28.480Z,1019.49
2023-05-01T08:20:33.072Z,1019.47
2023-05-01T08:21:37.149Z,1019.44
2023-05-01T08:22:40.834Z,1019.44
2023-05-01T08:23:42.943Z,1019.47
2023-05-01T08:24:46.998Z,1019.41
2023-05-01T08:25:51.330Z,1019.40
2023-05-01T08:26:51.800Z,1019.37
2023-05-01T08:27:56.126Z,1019.40
2023-05-01T08:29:08.387Z,1019.39
2023-05-01T08:30:04.563Z,1019.43
2023-05-01T08:31:11.336Z,1019.45
2023-05-01T08:32:13.519Z,1019.41
2023-05-01T08:33:17.846Z,1019.43
2023-05-01T08:34:22.206Z,1019.43
2023-05-01T08:35:26.325Z,1019.45
2023-05-01T08:36:30.654Z,1019.47
2023-05-01T08:37:34.991Z,1019.51
2023-05-01T08:38:39.361Z,1019.45
2023-05-01T08:39:43.652Z,1019.43
2023-05-01T08:40:48.247Z,1019.43
2023-05-01T08:41:52.565Z,1019.39
2023-05-01T08:42:57.160Z,1019.41
2023-05-01T08:44:01.011Z,1019.38
2023-05-01T08:45:05.353Z,1019.36
2023-05-01T08:46:09.736Z,1019.37
2023-05-01T08:47:14.464Z,1019.34
2023-05-01T08:48:18.740Z,1019.38
2023-05-01T08:49:22.990Z,1019.37
2023-05-01T08:50:27.072Z,1019.37
2023-05-01T08:51:31.907Z,1019.34
2023-05-01T08:52:36.007Z,1019.29
2023-05-01T08:53:40.116Z,1019.31
2023-05-01T08:54:44.787Z,1019.28
2023-05-01T08:55:56.968Z,1019.25
2023-05-01T08:56:49.466Z,1019.19
2023-05-01T08:57:52.830Z,1019.18
2023-05-01T08:58:54.966Z,1019.19
2023-05-01T09:00:00.042Z,1019.20
2023-05-01T09:01:02.047Z,1019.23
2023-05-01T09:02:01.283Z,1019.20
2023-05-01T09:03:05.893Z,1019.21
2023-05-01T09:04:12.640Z,1019.22
2023-05-01T09:05:11.964Z,1019.18
2023-05-01T09:06:16.051Z,1019.14
2023-05-01T09:07:20.411Z,1019.15
2023-05-01T09:08:24.982Z,1019.15
2023-05-01T09:09:29.569Z,1019.17
2023-05-01T09:10:33.673Z,1019.15
2023-05-01T09:11:37.998Z,1019.10
2023-05-01T09:12:42.097Z,1019.10
2023-05-01T09:13:46.693Z,1019.08
2023-05-01T09:14:51.036Z,1019.09
2023-05-01T09:15:55.160Z,1019.13
2023-05-01T09:16:59.707Z,1019.05
2023-05-01T09:18:04.255Z,1019.09
2023-05-01T09:19:08.645Z,1019.12
2023-05-01T09:20:12.732Z,1019.12
2023-05-01T09:21:17.068Z,1019.14
2023-05-01T09:23:36.310Z,1019.03
2023-05-01T09:24:35.441Z,1019.05
2023-05-01T09:25:39.807Z,1019.06
2023-05-01T09:26:44.120Z,1019.06
2023-05-01T09:27:48.968Z,1019.06
2023-05-01T09:28:53.038Z,1019.02
2023-05-01T09:29:57.449Z,1019.03
2023-05-01T09:31:01.452Z,1019.04
2023-05-01T09:32:05.851Z,1018.97
2023-05-01T09:33:10.481Z,1018.97
2023-05-01T09:34:14.483Z,1018.97
2023-05-01T09:35:18.814Z,1018.93
2023-05-01T09:36:23.160Z,1018.92
2023-05-01T09:37:30.274Z,1018.86
2023-05-01T09:38:29.687Z,1018.86
2023-05-01T09:39:34.283Z,1018.80
2023-05-01T09:40:38.393Z,1018.81
2023-05-01T09:41:42.457Z,1018.77
2023-05-01T09:42:46.778Z,1018.77
2023-05-01T09:43:51.398Z,1018.73
2023-05-01T09:44:55.458Z,1018.71
2023-05-01T09:46:00.142Z,1018.72
2023-05-01T09:47:04.128Z,1018.72
2023-05-01T09:48:09.026Z,1018.76
2023-05-01T09:49:12.827Z,1018.76
2023-05-01T09:50:17.190Z,1018.75
2023-05-01T09:51:21.914Z,1018.71
2023-05-01T09:52:25.910Z,1018.74
2023-05-01T09:53:26.017Z,1018.76
2023-05-01T09:54:30.614Z,1018.76
2023-05-01T09:55:34.722Z,1018.70
2023-05-01T09:56:39.296Z,1018.74
2023-05-01T09:57:43.381Z,1018.75
2023-05-01T09:58:48.007Z,1018.73
2023-05-01T09:59:52.305Z,1018.71
2023-05-01T10:00:56.700Z,1018.69
2023-05-01T10:02:01.022Z,1018.69
2023-05-01T10:03:06.445Z,1018.63
2023-05-01T10:04:09.436Z,1018.64
2023-05-01T10:05:14.073Z,1018.66
2023-05-01T10:06:18.151Z,1018.65
2023-05-01T10:07:22.426Z,1018.66
2023-05-01T10:08:27.265Z,1018.69
2023-05-01T10:09:31.390Z,1018.68
2023-05-01T10:10:35.733Z,1018.65
2023-05-01T10:11:40.069Z,1018.65
2023-05-01T10:12:44.398Z,1018.61
2023-05-01T10:13:48.715Z,1018.60
2023-05-01T10:14:52.822Z,1018.61
2023-05-01T10:15:57.147Z,1018.56
2023-05-01T10:17:02.076Z,1018.51
2023-05-01T10:18:06.193Z,1018.56
2023-05-01T10:19:10.474Z,1018.57
2023-05-01T10:20:14.530Z,1018.50
2023-05-01T10:21:18.863Z,1018.48
2023-05-01T10:22:23.195Z,1018.52
2023-05-01T10:23:23.339Z,1018.47
2023-05-01T10:24:27.942Z,1018.45
2023-05-01T10:25:32.002Z,1018.49
2023-05-01T10:26:36.354Z,1018.49
2023-05-01T10:27:43.891Z,1018.48
2023-05-01T10:28:42.785Z,1018.42
2023-05-01T10:29:47.364Z,1018.46
2023-05-01T10:30:52.137Z,1018.44
2023-05-01T10:31:56.070Z,1018.48
2023-05-01T10:33:00.355Z,1018.41
2023-05-01T10:34:04.411Z,1018.44
2023-05-01T10:35:08.742Z,1018.48
2023-05-01T10:36:13.354Z,1018.45
2023-05-01T10:37:17.426Z,1018.44
2023-05-01T10:38:22.031Z,1018.47
2023-05-01T10:39:26.596Z,1018.44
2023-05-01T10:40:30.939Z,1018.43
2023-05-01T10:41:34.791Z,1018.45
2023-05-01T10:42:39.333Z,1018.42
2023-05-01T10:43:43.418Z,1018.40
2023-05-01T10:44:50.617Z,1018.33
2023-05-01T10:45:49.695Z,1018.37
2023-05-01T10:46:54.458Z,1018.34
2023-05-01T10:47:58.602Z,1018.26
2023-05-01T10:49:03.168Z,1018.21
2023-05-01T10:50:07.497Z,1018.25
2023-05-01T10:51:11.353Z,1018.20
2023-05-01T10:52:15.894Z,1018.17
2023-05-01T10:53:16.263Z,1018.16
2023-05-01T10:54:20.363Z,1018.17
2023-05-01T10:55:24.442Z,1018.18
2023-05-01T10:56:28.765Z,1018.11
2023-05-01T10:57:33.664Z,1018.08
2023-05-01T10:58:37.736Z,1018.08
2023-05-01T10:59:41.821Z,1018.01
2023-05-01T11:00:46.455Z,1018.03
2023-05-01T11:01:50.799Z,1018.00
2023-05-01T11:02:55.109Z,1017.94
2023-05-01T11:03:59.424Z,1018.02
2023-05-01T11:05:03.552Z,1018.00
2023-05-01T11:06:07.969Z,1017.99
2023-05-01T11:07:12.278Z,1017.95
2023-05-01T11:08:16.785Z,1018.00
2023-05-01T11:09:21.110Z,1018.02
2023-05-01T11:10:25.712Z,1017.98
2023-05-01T11:11:29.778Z,1017.97
2023-05-01T11:12:33.879Z,1017.91
2023-05-01T11:13:38.210Z,1017.96
2023-05-01T11:14:42.815Z,1017.90
2023-05-01T11:15:47.142Z,1017.89
2023-05-01T11:16:51.705Z,1017.87
2023-05-01T11:17:55.628Z,1017.87
2023-05-01T11:19:00.433Z,1017.82
2023-05-01T11:20:04.528Z,1017.84
2023-05-01T11:21:08.861Z,1017.83
2023-05-01T11:22:12.968Z,1017.91
2023-05-01T11:23:13.519Z,1017.89
2023-05-01T11:24:17.627Z,1017.84
2023-05-01T11:25:22.228Z,1017.83
2023-05-01T11:26:26.562Z,1017.82
2023-05-01T11:27:30.627Z,1017.83
2023-05-01T11:28:35.231Z,1017.80
2023-05-01T11:29:39.555Z,1017.79
2023-05-01T11:30:44.194Z,1017.76
2023-05-01T11:31:48.637Z,1017.81
2023-05-01T11:32:52.747Z,1017.75
2023-05-01T11:34:04.714Z,1017.80
2023-05-01T11:35:04.044Z,1017.75
2023-05-01T11:36:03.158Z,1017.76
2023-05-01T11:37:07.755Z,1017.75
2023-05-01T11:38:12.104Z,1017.76
2023-05-01T11:39:16.451Z,1017.79
2023-05-01T11:40:20.778Z,1017.76
2023-05-01T11:41:25.395Z,1017.72
2023-05-01T11:42:29.202Z,1017.73
2023-05-01T11:43:33.766Z,1017.71
2023-05-01T11:44:38.107Z,1017.74
2023-05-01T11:45:42.247Z,1017.68
2023-05-01T11:46:46.775Z,1017.67
2023-05-01T11:47:51.135Z,1017.71
2023-05-01T11:48:55.475Z,1017.72
2023-05-01T11:50:00.027Z,1017.71
2023-05-01T11:51:04.102Z,1017.69
2023-05-01T11:52:08.193Z,1017.67
2023-05-01T11:53:08.885Z,1017.61
2023-05-01T11:54:15.088Z,1017.66
2023-05-01T11:55:17.302Z,1017.68
2023-05-01T11:56:26.423Z,1017.60
2023-05-01T11:57:25.701Z,1017.63
2023-05-01T11:58:30.299Z,1017.62
2023-05-01T11:59:34.378Z,1017.64
2023-05-01T12:00:38.987Z,1017.66
2023-05-01T12:01:43.307Z,1017.66
2023-05-01T12:02:47.963Z,1017.65
2023-05-01T12:03:51.819Z,1017.64
2023-05-01T12:04:56.682Z,1017.61
2023-05-01T12:06:00.645Z,1017.61
2023-05-01T12:07:04.685Z,1017.60
2023-05-01T12:08:09.269Z,1017.63
2023-05-01T12:09:13.621Z,1017.65
2023-05-01T12:10:17.940Z,1017.64
2023-05-01T12:11:22.287Z,1017.65
2023-05-01T12:12:26.620Z,1017.65
2023-05-01T12:13:30.959Z,1017.63
2023-05-01T12:14:35.020Z,1017.66
2023-05-01T12:15:39.353Z,1017.64
2023-05-01T12:16:43.959Z,1017.64
2023-05-01T12:17:48.070Z,1017.66
2023-05-01T12:18:52.358Z,1017.64
2023-05-01T12:19:56.969Z,1017.65
2023-05-01T12:21:01.317Z,1017.56
2023-05-01T12:22:05.633Z,1017.52
2023-05-01T12:23:06.234Z,1017.57
2023-05-01T12:24:10.039Z,1017.59
2023-05-01T12:25:14.631Z,1017.55
2023-05-01T12:26:18.970Z,1017.54
2023-05-01T12:27:23.030Z,1017.53
2023-05-01T12:28:27.360Z,1017.46
2023-05-01T12:29:31.691Z,1017.50
2023-05-01T12:30:36.282Z,1017.50
2023-05-01T12:31:40.651Z,1017.52
2023-05-01T12:32:45.249Z,1017.51
2023-05-01T12:33:49.275Z,1017.47
2023-05-01T12:34:53.352Z,1017.43
2023-05-01T12:36:00.458Z,1017.43
2023-05-01T12:36:59.592Z,1017.43
2023-05-01T12:38:03.908Z,1017.43
2023-05-01T12:39:08.237Z,1017.44
2023-05-01T12:40:12.575Z,1017.39
2023-05-01T12:41:17.423Z,1017.45
2023-05-01T12:42:21.496Z,1017.42
2023-05-01T12:43:25.564Z,1017.39
2023-05-01T12:44:29.891Z,1017.41
2023-05-01T12:45:33.468Z,1017.40
2023-05-01T12:46:38.658Z,1017.39
2023-05-01T12:47:43.229Z,1017.41
2023-05-01T12:48:47.543Z,1017.34
2023-05-01T12:49:51.600Z,1017.36
2023-05-01T12:50:56.450Z,1017.35
2023-05-01T12:52:00.576Z,1017.29
2023-05-01T12:53:00.892Z,1017.26
2023-05-01T12:54:05.033Z,1017.26
2023-05-01T12:55:09.361Z,1017.29
2023-05-01T12:56:13.452Z,1017.26
2023-05-01T12:57:17.799Z,1017.26
2023-05-01T12:58:22.376Z,1017.28
2023-05-01T12:59:26.459Z,1017.24
2023-05-01T13:00:30.818Z,1017.25
2023-05-01T13:01:35.134Z,1017.24
2023-05-01T13:02:40.016Z,1017.20
2023-05-01T13:03:44.235Z,1017.23
2023-05-01T13:04:48.384Z,1017.20
2023-05-01T13:05:52.477Z,1017.18
2023-05-01T13:06:56.800Z,1017.19